Algiers Airport, Algeria

8:36 PM CET on July 23, 2014 (GMT +0100)
Houari Boumediene (DAAG) Elev 82 ft | 36.69 °N, 3.22 °E | Change Station

Current weather conditions updated 36 minutes ago

Clear
Clear
84 °F
Feels Like 85 °F
N
6
Wind Variable Wind from NE

Tomorrow is forecast to be Cooler than today.

Today
High -- | Low -- °F
--% Chance of Precip.
Yesterday
High -- | Low -- °F
Precip. -- in
5:45 AM 8:01 PM
Waning Crescent, 9% visible
Pressure 29.83 in
Visibility -9999.0 miles
Clouds
Heat Index 85 °F
Dew Point 63 °F
Humidity 48%
Rainfall 0.00 in
Snow Depth Not available.
UV Not available.
Pollen Not available.
Air Quality Not available.
Flu Activity Not available.
METAR DAAG 231900Z 04005KT CAVOK 29/17 Q1010

More Conditions Fewer Conditions

Pressure 29.83 in
Visibility -9999.0 miles
Clouds
Heat Index 85 °F
Dew Point 63 °F
Humidity 48%
Rainfall 0.00 in
Snow Depth Not available.
UV Not available.
Pollen Not available.
Air Quality Not available.
Flu Activity Not available.
METAR DAAG 231900Z 04005KT CAVOK 29/17 Q1010

More Conditions Fewer Conditions

10-Day Weather Forecast

Almanac

Astronomy

Jul. 23, 2014 Rise Set
Actual Time 5:45 AM CET 8:01 PM CET
Civil Twilight 5:16 AM CET 8:30 PM CET
Nautical Twilight 4:40 AM CET 9:06 PM CET
Astronomical Twilight 4:01 AM CET 9:45 PM CET
Moon 2:51 AM CET 5:17 PM CET
Length of Visible Light 15h 14m
Length of Day
14h 15m
Tomorrow will be 1m 29s shorter.
Waning Crescent, 9% of the Moon is Illuminated
Today
Waning Crescent
Jul 26
New
Aug 3
First Quarter
Aug 10
Full
Aug 17
Last Quarter

Today's Extremes

Country Highs Country Lows

Community

WunderPhotos

Upload Photos

1,736,734 photos uploaded!

Nearby

Snow Depth

Not available.

Earthquake Activity

City Distance Mag. Time & Date
No recent earthquake activity has been reported nearby.
Minimum magnitude displayed is 2.5.

Coastal Water Temperatures

Place Temperature
No Stations Reporting

Nearby Weather Stations

There are no personal weather stations in this area.